ELT weather

El Tor Airport
South Sinai Governorate, Egypt

Public forecast

Using degrees Celsius for public forecast. Weather courtesy of forecast.io.

METAR (pilot weather report)

Report is more than 2 hours old.

Retrieved 2019/03/24 02:00 UTC (3 hours ago):

HETR 240200Z 16010KT CAVOK 16/08 Q1001

TAF (pilot weather forecast)

Forecast is more than 12 hours old.

Retrieved 2019/03/20 18:00 UTC (3 days ago):

TAF HETR 201700Z 2018/2124 32008G20KT CAVOK